sensor_id;sensor_type;location;lat;lon;timestamp;P1;durP1;ratioP1;P2;durP2;ratioP2
28459;SDS011;32528;45.712;9.192;2023-05-15T00:01:06;4.40;;;1.23;;
28459;SDS011;32528;45.712;9.192;2023-05-15T00:03:06;5.38;;;0.73;;
28459;SDS011;32528;45.712;9.192;2023-05-15T00:05:07;1.90;;;0.85;;
28459;SDS011;32528;45.712;9.192;2023-05-15T00:07:08;2.05;;;0.95;;
28459;SDS011;32528;45.712;9.192;2023-05-15T00:09:09;1.02;;;0.80;;
28459;SDS011;32528;45.712;9.192;2023-05-15T00:11:10;2.65;;;1.20;;
28459;SDS011;32528;45.712;9.192;2023-05-15T00:13:11;4.85;;;1.15;;
28459;SDS011;32528;45.712;9.192;2023-05-15T00:15:12;5.32;;;2.03;;
28459;SDS011;32528;45.712;9.192;2023-05-15T00:17:12;4.72;;;0.82;;
28459;SDS011;32528;45.712;9.192;2023-05-15T00:19:13;2.70;;;1.20;;
28459;SDS011;32528;45.712;9.192;2023-05-15T00:21:14;6.90;;;1.05;;
28459;SDS011;32528;45.712;9.192;2023-05-15T00:23:14;4.30;;;1.25;;
28459;SDS011;32528;45.712;9.192;2023-05-15T00:25:15;5.53;;;1.85;;
28459;SDS011;32528;45.712;9.192;2023-05-15T00:27:18;1.98;;;1.00;;
28459;SDS011;32528;45.712;9.192;2023-05-15T00:29:19;4.47;;;1.20;;
28459;SDS011;32528;45.712;9.192;2023-05-15T00:31:19;4.47;;;1.42;;
28459;SDS011;32528;45.712;9.192;2023-05-15T00:33:20;2.70;;;0.93;;
28459;SDS011;32528;45.712;9.192;2023-05-15T00:35:21;4.25;;;0.80;;
28459;SDS011;32528;45.712;9.192;2023-05-15T00:37:24;2.22;;;1.23;;
28459;SDS011;32528;45.712;9.192;2023-05-15T00:39:25;2.58;;;0.82;;
28459;SDS011;32528;45.712;9.192;2023-05-15T00:41:26;1.77;;;1.10;;
28459;SDS011;32528;45.712;9.192;2023-05-15T00:43:27;3.72;;;0.82;;
28459;SDS011;32528;45.712;9.192;2023-05-15T00:45:29;1.45;;;0.88;;
28459;SDS011;32528;45.712;9.192;2023-05-15T00:47:31;1.52;;;0.85;;
28459;SDS011;32528;45.712;9.192;2023-05-15T00:49:33;4.15;;;1.15;;
28459;SDS011;32528;45.712;9.192;2023-05-15T00:51:36;3.95;;;1.23;;
28459;SDS011;32528;45.712;9.192;2023-05-15T00:53:37;3.40;;;1.20;;
28459;SDS011;32528;45.712;9.192;2023-05-15T00:55:38;3.90;;;1.20;;
28459;SDS011;32528;45.712;9.192;2023-05-15T00:57:42;2.10;;;1.13;;
28459;SDS011;32528;45.712;9.192;2023-05-15T00:59:43;1.73;;;0.80;;
28459;SDS011;32528;45.712;9.192;2023-05-15T01:01:45;3.28;;;0.90;;
28459;SDS011;32528;45.712;9.192;2023-05-15T01:03:46;9.93;;;1.25;;
28459;SDS011;32528;45.712;9.192;2023-05-15T01:05:47;2.13;;;1.13;;
28459;SDS011;32528;45.712;9.192;2023-05-15T01:07:51;1.45;;;0.77;;
28459;SDS011;32528;45.712;9.192;2023-05-15T01:09:57;1.48;;;0.75;;
28459;SDS011;32528;45.712;9.192;2023-05-15T01:12:00;2.00;;;0.80;;
28459;SDS011;32528;45.712;9.192;2023-05-15T01:14:04;1.70;;;0.82;;
28459;SDS011;32528;45.712;9.192;2023-05-15T01:16:06;2.20;;;1.30;;
28459;SDS011;32528;45.712;9.192;2023-05-15T01:18:07;3.80;;;1.10;;
28459;SDS011;32528;45.712;9.192;2023-05-15T01:20:09;9.48;;;1.10;;
28459;SDS011;32528;45.712;9.192;2023-05-15T01:22:26;2.45;;;0.85;;
28459;SDS011;32528;45.712;9.192;2023-05-15T01:24:56;3.30;;;0.90;;
28459;SDS011;32528;45.712;9.192;2023-05-15T01:27:16;1.77;;;0.85;;
28459;SDS011;32528;45.712;9.192;2023-05-15T01:31:33;1.92;;;0.82;;
28459;SDS011;32528;45.712;9.192;2023-05-15T01:33:37;2.28;;;1.10;;
28459;SDS011;32528;45.712;9.192;2023-05-15T01:35:58;2.85;;;1.00;;
28459;SDS011;32528;45.712;9.192;2023-05-15T01:40:26;2.58;;;1.02;;
28459;SDS011;32528;45.712;9.192;2023-05-15T01:42:32;3.92;;;0.80;;
28459;SDS011;32528;45.712;9.192;2023-05-15T01:44:35;1.50;;;0.80;;
28459;SDS011;32528;45.712;9.192;2023-05-15T01:46:41;3.67;;;1.10;;
28459;SDS011;32528;45.712;9.192;2023-05-15T01:48:45;3.60;;;1.15;;
28459;SDS011;32528;45.712;9.192;2023-05-15T01:50:48;6.25;;;1.15;;
28459;SDS011;32528;45.712;9.192;2023-05-15T01:52:55;3.47;;;1.15;;
28459;SDS011;32528;45.712;9.192;2023-05-15T01:55:02;4.68;;;0.95;;
28459;SDS011;32528;45.712;9.192;2023-05-15T01:57:05;5.40;;;0.70;;
28459;SDS011;32528;45.712;9.192;2023-05-15T01:59:08;8.05;;;0.82;;
28459;SDS011;32528;45.712;9.192;2023-05-15T02:01:12;1.45;;;0.90;;
28459;SDS011;32528;45.712;9.192;2023-05-15T02:03:13;12.07;;;1.02;;
28459;SDS011;32528;45.712;9.192;2023-05-15T02:05:14;2.05;;;0.85;;
28459;SDS011;32528;45.712;9.192;2023-05-15T02:07:16;1.80;;;0.90;;
28459;SDS011;32528;45.712;9.192;2023-05-15T02:09:18;10.07;;;0.70;;
28459;SDS011;32528;45.712;9.192;2023-05-15T02:11:22;15.70;;;1.48;;
28459;SDS011;32528;45.712;9.192;2023-05-15T02:13:23;4.80;;;1.02;;
28459;SDS011;32528;45.712;9.192;2023-05-15T02:15:26;1.08;;;0.45;;
28459;SDS011;32528;45.712;9.192;2023-05-15T02:17:27;2.63;;;0.73;;
28459;SDS011;32528;45.712;9.192;2023-05-15T02:19:28;6.43;;;1.38;;
28459;SDS011;32528;45.712;9.192;2023-05-15T02:21:29;4.45;;;0.90;;
28459;SDS011;32528;45.712;9.192;2023-05-15T02:23:30;6.07;;;0.90;;
28459;SDS011;32528;45.712;9.192;2023-05-15T02:25:37;2.40;;;1.20;;
28459;SDS011;32528;45.712;9.192;2023-05-15T02:27:47;2.55;;;0.85;;
28459;SDS011;32528;45.712;9.192;2023-05-15T02:32:17;8.40;;;1.27;;
28459;SDS011;32528;45.712;9.192;2023-05-15T02:36:33;1.67;;;0.90;;
28459;SDS011;32528;45.712;9.192;2023-05-15T02:38:52;8.35;;;1.38;;
28459;SDS011;32528;45.712;9.192;2023-05-15T02:42:54;1.70;;;0.95;;
28459;SDS011;32528;45.712;9.192;2023-05-15T02:44:56;1.98;;;1.00;;
28459;SDS011;32528;45.712;9.192;2023-05-15T02:46:57;3.05;;;1.60;;
28459;SDS011;32528;45.712;9.192;2023-05-15T02:48:59;2.17;;;1.20;;
28459;SDS011;32528;45.712;9.192;2023-05-15T02:51:01;8.85;;;1.38;;
28459;SDS011;32528;45.712;9.192;2023-05-15T03:05:10;2.85;;;1.08;;
28459;SDS011;32528;45.712;9.192;2023-05-15T03:07:11;1.45;;;0.80;;
28459;SDS011;32528;45.712;9.192;2023-05-15T03:09:13;4.20;;;1.23;;
28459;SDS011;32528;45.712;9.192;2023-05-15T03:11:14;2.65;;;1.10;;
28459;SDS011;32528;45.712;9.192;2023-05-15T03:13:15;3.15;;;1.23;;
28459;SDS011;32528;45.712;9.192;2023-05-15T03:15:16;3.97;;;0.98;;
28459;SDS011;32528;45.712;9.192;2023-05-15T03:17:17;1.58;;;0.70;;
28459;SDS011;32528;45.712;9.192;2023-05-15T03:19:18;5.13;;;1.27;;
28459;SDS011;32528;45.712;9.192;2023-05-15T03:21:18;3.65;;;1.20;;
28459;SDS011;32528;45.712;9.192;2023-05-15T03:23:19;3.58;;;1.23;;
28459;SDS011;32528;45.712;9.192;2023-05-15T03:25:20;3.60;;;1.02;;
28459;SDS011;32528;45.712;9.192;2023-05-15T03:27:21;3.78;;;1.52;;
28459;SDS011;32528;45.712;9.192;2023-05-15T03:29:22;14.68;;;1.58;;
28459;SDS011;32528;45.712;9.192;2023-05-15T03:31:23;3.08;;;1.23;;
28459;SDS011;32528;45.712;9.192;2023-05-15T03:33:23;2.60;;;1.13;;
28459;SDS011;32528;45.712;9.192;2023-05-15T03:35:24;5.18;;;0.98;;
28459;SDS011;32528;45.712;9.192;2023-05-15T03:37:26;3.13;;;0.90;;
28459;SDS011;32528;45.712;9.192;2023-05-15T03:39:26;6.63;;;1.23;;
28459;SDS011;32528;45.712;9.192;2023-05-15T03:41:27;0.90;;;0.70;;
28459;SDS011;32528;45.712;9.192;2023-05-15T03:43:28;7.30;;;1.38;;
28459;SDS011;32528;45.712;9.192;2023-05-15T03:45:29;8.93;;;1.15;;
28459;SDS011;32528;45.712;9.192;2023-05-15T03:47:32;7.18;;;0.93;;
28459;SDS011;32528;45.712;9.192;2023-05-15T03:49:33;9.90;;;1.50;;
28459;SDS011;32528;45.712;9.192;2023-05-15T03:51:34;5.55;;;1.15;;
28459;SDS011;32528;45.712;9.192;2023-05-15T03:53:34;4.65;;;1.30;;
28459;SDS011;32528;45.712;9.192;2023-05-15T03:55:35;2.53;;;1.02;;
28459;SDS011;32528;45.712;9.192;2023-05-15T03:57:36;2.40;;;1.10;;
28459;SDS011;32528;45.712;9.192;2023-05-15T03:59:37;1.17;;;0.93;;
28459;SDS011;32528;45.712;9.192;2023-05-15T04:01:38;2.40;;;0.93;;
28459;SDS011;32528;45.712;9.192;2023-05-15T04:03:39;2.47;;;1.30;;
28459;SDS011;32528;45.712;9.192;2023-05-15T04:05:39;3.72;;;1.30;;
28459;SDS011;32528;45.712;9.192;2023-05-15T04:07:40;2.92;;;1.10;;
28459;SDS011;32528;45.712;9.192;2023-05-15T04:09:41;10.25;;;1.17;;
28459;SDS011;32528;45.712;9.192;2023-05-15T04:11:41;2.22;;;1.00;;
28459;SDS011;32528;45.712;9.192;2023-05-15T04:13:43;1.55;;;0.65;;
28459;SDS011;32528;45.712;9.192;2023-05-15T04:15:43;12.00;;;1.33;;
28459;SDS011;32528;45.712;9.192;2023-05-15T04:17:45;2.88;;;1.17;;
28459;SDS011;32528;45.712;9.192;2023-05-15T04:19:46;2.60;;;1.27;;
28459;SDS011;32528;45.712;9.192;2023-05-15T04:21:47;8.13;;;1.10;;
28459;SDS011;32528;45.712;9.192;2023-05-15T04:23:47;6.78;;;1.15;;
28459;SDS011;32528;45.712;9.192;2023-05-15T04:25:48;5.13;;;0.90;;
28459;SDS011;32528;45.712;9.192;2023-05-15T04:27:49;6.47;;;1.55;;
28459;SDS011;32528;45.712;9.192;2023-05-15T04:29:50;2.35;;;1.05;;
28459;SDS011;32528;45.712;9.192;2023-05-15T04:31:50;0.85;;;0.60;;
28459;SDS011;32528;45.712;9.192;2023-05-15T04:33:51;8.18;;;1.10;;
28459;SDS011;32528;45.712;9.192;2023-05-15T04:35:52;4.82;;;1.00;;
28459;SDS011;32528;45.712;9.192;2023-05-15T04:37:53;5.72;;;1.17;;
28459;SDS011;32528;45.712;9.192;2023-05-15T04:39:54;5.38;;;1.48;;
28459;SDS011;32528;45.712;9.192;2023-05-15T04:41:55;1.75;;;0.90;;
28459;SDS011;32528;45.712;9.192;2023-05-15T04:43:56;5.90;;;1.05;;
28459;SDS011;32528;45.712;9.192;2023-05-15T04:45:56;3.10;;;1.27;;
28459;SDS011;32528;45.712;9.192;2023-05-15T04:47:57;3.33;;;1.55;;
28459;SDS011;32528;45.712;9.192;2023-05-15T04:49:58;3.80;;;0.98;;
28459;SDS011;32528;45.712;9.192;2023-05-15T04:51:58;1.85;;;0.90;;
28459;SDS011;32528;45.712;9.192;2023-05-15T04:53:59;2.65;;;1.20;;
28459;SDS011;32528;45.712;9.192;2023-05-15T04:56:00;3.10;;;1.35;;
28459;SDS011;32528;45.712;9.192;2023-05-15T04:58:00;2.03;;;1.10;;
28459;SDS011;32528;45.712;9.192;2023-05-15T05:00:01;2.10;;;0.88;;
28459;SDS011;32528;45.712;9.192;2023-05-15T05:02:08;2.67;;;1.00;;
28459;SDS011;32528;45.712;9.192;2023-05-15T05:04:09;5.05;;;1.45;;
28459;SDS011;32528;45.712;9.192;2023-05-15T05:06:09;1.83;;;1.10;;
28459;SDS011;32528;45.712;9.192;2023-05-15T05:08:10;3.47;;;1.02;;
28459;SDS011;32528;45.712;9.192;2023-05-15T05:10:11;4.88;;;1.63;;
28459;SDS011;32528;45.712;9.192;2023-05-15T05:12:12;2.90;;;1.63;;
28459;SDS011;32528;45.712;9.192;2023-05-15T05:14:13;2.63;;;1.30;;
28459;SDS011;32528;45.712;9.192;2023-05-15T05:16:14;4.15;;;1.48;;
28459;SDS011;32528;45.712;9.192;2023-05-15T05:18:15;1.98;;;1.00;;
28459;SDS011;32528;45.712;9.192;2023-05-15T05:20:17;6.45;;;1.60;;
28459;SDS011;32528;45.712;9.192;2023-05-15T05:22:18;4.65;;;1.50;;
28459;SDS011;32528;45.712;9.192;2023-05-15T05:24:19;6.00;;;2.10;;
28459;SDS011;32528;45.712;9.192;2023-05-15T05:26:20;8.65;;;3.17;;
28459;SDS011;32528;45.712;9.192;2023-05-15T05:28:21;9.93;;;2.95;;
28459;SDS011;32528;45.712;9.192;2023-05-15T05:30:22;8.07;;;2.72;;
28459;SDS011;32528;45.712;9.192;2023-05-15T05:32:23;5.30;;;2.38;;
28459;SDS011;32528;45.712;9.192;2023-05-15T05:34:24;5.72;;;2.50;;
28459;SDS011;32528;45.712;9.192;2023-05-15T05:36:24;7.85;;;2.97;;
28459;SDS011;32528;45.712;9.192;2023-05-15T05:38:25;8.00;;;3.20;;
28459;SDS011;32528;45.712;9.192;2023-05-15T05:40:26;7.13;;;3.00;;
28459;SDS011;32528;45.712;9.192;2023-05-15T05:42:27;9.65;;;2.63;;
28459;SDS011;32528;45.712;9.192;2023-05-15T05:44:28;9.70;;;2.38;;
28459;SDS011;32528;45.712;9.192;2023-05-15T05:46:28;6.65;;;2.55;;
28459;SDS011;32528;45.712;9.192;2023-05-15T05:48:29;6.20;;;2.25;;
28459;SDS011;32528;45.712;9.192;2023-05-15T05:50:30;5.30;;;2.75;;
28459;SDS011;32528;45.712;9.192;2023-05-15T05:52:31;5.70;;;2.35;;
28459;SDS011;32528;45.712;9.192;2023-05-15T05:54:32;5.72;;;2.85;;
28459;SDS011;32528;45.712;9.192;2023-05-15T05:56:33;2.70;;;1.65;;
28459;SDS011;32528;45.712;9.192;2023-05-15T05:58:34;12.75;;;2.80;;
28459;SDS011;32528;45.712;9.192;2023-05-15T06:00:35;11.48;;;2.33;;
28459;SDS011;32528;45.712;9.192;2023-05-15T06:02:36;4.43;;;2.00;;
28459;SDS011;32528;45.712;9.192;2023-05-15T06:04:38;12.70;;;2.25;;
28459;SDS011;32528;45.712;9.192;2023-05-15T06:06:40;4.60;;;1.98;;
28459;SDS011;32528;45.712;9.192;2023-05-15T06:08:41;5.88;;;1.65;;
28459;SDS011;32528;45.712;9.192;2023-05-15T06:10:41;9.88;;;1.50;;
28459;SDS011;32528;45.712;9.192;2023-05-15T06:12:42;3.33;;;1.75;;
28459;SDS011;32528;45.712;9.192;2023-05-15T06:14:43;4.82;;;1.98;;
28459;SDS011;32528;45.712;9.192;2023-05-15T06:16:43;2.75;;;1.30;;
28459;SDS011;32528;45.712;9.192;2023-05-15T06:18:44;2.75;;;1.60;;
28459;SDS011;32528;45.712;9.192;2023-05-15T06:20:45;6.47;;;2.03;;
28459;SDS011;32528;45.712;9.192;2023-05-15T06:22:45;4.40;;;1.48;;
28459;SDS011;32528;45.712;9.192;2023-05-15T06:24:46;2.72;;;1.70;;
28459;SDS011;32528;45.712;9.192;2023-05-15T06:26:47;2.85;;;1.20;;
28459;SDS011;32528;45.712;9.192;2023-05-15T06:28:48;4.55;;;1.67;;
28459;SDS011;32528;45.712;9.192;2023-05-15T06:30:48;3.00;;;1.83;;
28459;SDS011;32528;45.712;9.192;2023-05-15T06:32:49;8.63;;;1.98;;
28459;SDS011;32528;45.712;9.192;2023-05-15T06:34:50;2.85;;;1.42;;
28459;SDS011;32528;45.712;9.192;2023-05-15T06:36:51;3.45;;;1.60;;
28459;SDS011;32528;45.712;9.192;2023-05-15T06:38:52;12.98;;;1.30;;
28459;SDS011;32528;45.712;9.192;2023-05-15T06:40:53;5.28;;;2.22;;
28459;SDS011;32528;45.712;9.192;2023-05-15T06:42:53;2.38;;;1.15;;
28459;SDS011;32528;45.712;9.192;2023-05-15T06:44:55;2.65;;;1.33;;
28459;SDS011;32528;45.712;9.192;2023-05-15T06:46:56;3.35;;;1.95;;
28459;SDS011;32528;45.712;9.192;2023-05-15T06:48:57;5.78;;;2.22;;
28459;SDS011;32528;45.712;9.192;2023-05-15T06:50:57;5.20;;;2.15;;
28459;SDS011;32528;45.712;9.192;2023-05-15T06:52:58;4.22;;;1.88;;
28459;SDS011;32528;45.712;9.192;2023-05-15T06:55:00;4.75;;;2.28;;
28459;SDS011;32528;45.712;9.192;2023-05-15T06:57:01;12.27;;;2.28;;
28459;SDS011;32528;45.712;9.192;2023-05-15T06:59:01;6.53;;;2.67;;
28459;SDS011;32528;45.712;9.192;2023-05-15T07:01:04;8.57;;;2.95;;
28459;SDS011;32528;45.712;9.192;2023-05-15T07:03:06;4.50;;;2.42;;
28459;SDS011;32528;45.712;9.192;2023-05-15T07:07:07;9.25;;;2.50;;
28459;SDS011;32528;45.712;9.192;2023-05-15T07:09:08;5.80;;;2.90;;
28459;SDS011;32528;45.712;9.192;2023-05-15T07:11:09;5.88;;;2.83;;
28459;SDS011;32528;45.712;9.192;2023-05-15T07:13:09;7.50;;;4.40;;
28459;SDS011;32528;45.712;9.192;2023-05-15T07:15:10;6.85;;;3.55;;
28459;SDS011;32528;45.712;9.192;2023-05-15T07:17:11;10.40;;;3.58;;
28459;SDS011;32528;45.712;9.192;2023-05-15T07:19:12;5.38;;;3.00;;
28459;SDS011;32528;45.712;9.192;2023-05-15T07:21:12;7.22;;;3.15;;
28459;SDS011;32528;45.712;9.192;2023-05-15T07:23:13;7.40;;;2.95;;
28459;SDS011;32528;45.712;9.192;2023-05-15T07:25:14;5.90;;;3.28;;
28459;SDS011;32528;45.712;9.192;2023-05-15T07:31:16;4.30;;;2.30;;
28459;SDS011;32528;45.712;9.192;2023-05-15T07:33:17;5.43;;;2.85;;
28459;SDS011;32528;45.712;9.192;2023-05-15T07:35:18;6.03;;;3.25;;
28459;SDS011;32528;45.712;9.192;2023-05-15T07:37:20;7.47;;;3.85;;
28459;SDS011;32528;45.712;9.192;2023-05-15T07:39:20;9.57;;;4.03;;
28459;SDS011;32528;45.712;9.192;2023-05-15T07:41:22;9.57;;;3.60;;
28459;SDS011;32528;45.712;9.192;2023-05-15T07:43:22;7.05;;;3.50;;
28459;SDS011;32528;45.712;9.192;2023-05-15T07:45:23;10.80;;;3.70;;
28459;SDS011;32528;45.712;9.192;2023-05-15T07:47:24;6.93;;;3.28;;
28459;SDS011;32528;45.712;9.192;2023-05-15T07:49:25;8.33;;;3.83;;
28459;SDS011;32528;45.712;9.192;2023-05-15T07:51:26;8.05;;;3.70;;
28459;SDS011;32528;45.712;9.192;2023-05-15T07:53:26;7.63;;;3.33;;
28459;SDS011;32528;45.712;9.192;2023-05-15T07:55:27;6.87;;;3.73;;
28459;SDS011;32528;45.712;9.192;2023-05-15T07:57:29;7.50;;;3.40;;
28459;SDS011;32528;45.712;9.192;2023-05-15T07:59:31;7.53;;;3.72;;
28459;SDS011;32528;45.712;9.192;2023-05-15T08:01:31;8.13;;;3.05;;
28459;SDS011;32528;45.712;9.192;2023-05-15T08:03:32;6.97;;;3.92;;
28459;SDS011;32528;45.712;9.192;2023-05-15T08:05:33;7.38;;;3.40;;
28459;SDS011;32528;45.712;9.192;2023-05-15T08:07:34;11.18;;;4.13;;
28459;SDS011;32528;45.712;9.192;2023-05-15T08:09:35;7.53;;;3.72;;
28459;SDS011;32528;45.712;9.192;2023-05-15T08:11:36;8.67;;;3.47;;
28459;SDS011;32528;45.712;9.192;2023-05-15T08:13:36;7.57;;;3.67;;
28459;SDS011;32528;45.712;9.192;2023-05-15T08:15:37;7.75;;;3.55;;
28459;SDS011;32528;45.712;9.192;2023-05-15T08:17:38;6.43;;;2.90;;
28459;SDS011;32528;45.712;9.192;2023-05-15T08:19:39;6.65;;;3.88;;
28459;SDS011;32528;45.712;9.192;2023-05-15T08:21:39;7.78;;;3.33;;
28459;SDS011;32528;45.712;9.192;2023-05-15T08:23:40;8.60;;;3.00;;
28459;SDS011;32528;45.712;9.192;2023-05-15T08:25:41;8.88;;;3.85;;
28459;SDS011;32528;45.712;9.192;2023-05-15T08:27:42;6.97;;;3.67;;
28459;SDS011;32528;45.712;9.192;2023-05-15T08:29:44;10.35;;;3.83;;
28459;SDS011;32528;45.712;9.192;2023-05-15T08:31:45;5.95;;;2.63;;
28459;SDS011;32528;45.712;9.192;2023-05-15T08:33:46;7.33;;;2.80;;
28459;SDS011;32528;45.712;9.192;2023-05-15T08:35:47;7.03;;;3.38;;
28459;SDS011;32528;45.712;9.192;2023-05-15T08:37:50;5.82;;;3.17;;
28459;SDS011;32528;45.712;9.192;2023-05-15T08:39:50;12.30;;;3.10;;
28459;SDS011;32528;45.712;9.192;2023-05-15T08:43:57;8.93;;;3.33;;
28459;SDS011;32528;45.712;9.192;2023-05-15T08:46:00;7.57;;;3.42;;
28459;SDS011;32528;45.712;9.192;2023-05-15T08:48:01;5.37;;;2.83;;
28459;SDS011;32528;45.712;9.192;2023-05-15T08:50:14;6.68;;;3.22;;
28459;SDS011;32528;45.712;9.192;2023-05-15T08:52:16;7.03;;;2.90;;
28459;SDS011;32528;45.712;9.192;2023-05-15T08:54:17;8.25;;;3.47;;
28459;SDS011;32528;45.712;9.192;2023-05-15T08:56:18;7.10;;;3.23;;
28459;SDS011;32528;45.712;9.192;2023-05-15T08:58:19;15.10;;;4.93;;
28459;SDS011;32528;45.712;9.192;2023-05-15T09:00:24;7.07;;;3.58;;
28459;SDS011;32528;45.712;9.192;2023-05-15T09:02:27;10.52;;;3.00;;
28459;SDS011;32528;45.712;9.192;2023-05-15T09:04:28;6.13;;;3.00;;
28459;SDS011;32528;45.712;9.192;2023-05-15T09:06:29;5.97;;;2.90;;
28459;SDS011;32528;45.712;9.192;2023-05-15T09:08:32;5.05;;;2.53;;
28459;SDS011;32528;45.712;9.192;2023-05-15T09:10:35;8.45;;;2.95;;
28459;SDS011;32528;45.712;9.192;2023-05-15T09:12:38;7.35;;;3.00;;
28459;SDS011;32528;45.712;9.192;2023-05-15T09:14:42;9.20;;;3.30;;
28459;SDS011;32528;45.712;9.192;2023-05-15T09:16:43;7.68;;;3.10;;
28459;SDS011;32528;45.712;9.192;2023-05-15T09:18:45;10.68;;;3.83;;
28459;SDS011;32528;45.712;9.192;2023-05-15T09:20:48;6.47;;;3.45;;
28459;SDS011;32528;45.712;9.192;2023-05-15T09:22:50;6.00;;;3.28;;
28459;SDS011;32528;45.712;9.192;2023-05-15T09:24:51;6.80;;;2.80;;
28459;SDS011;32528;45.712;9.192;2023-05-15T09:27:02;10.77;;;3.40;;
28459;SDS011;32528;45.712;9.192;2023-05-15T09:29:05;6.18;;;3.22;;
28459;SDS011;32528;45.712;9.192;2023-05-15T09:31:06;10.20;;;3.22;;
28459;SDS011;32528;45.712;9.192;2023-05-15T09:33:08;7.55;;;3.40;;
28459;SDS011;32528;45.712;9.192;2023-05-15T09:37:30;7.70;;;2.88;;
28459;SDS011;32528;45.712;9.192;2023-05-15T09:39:33;5.53;;;2.83;;
28459;SDS011;32528;45.712;9.192;2023-05-15T09:41:43;8.40;;;3.17;;
28459;SDS011;32528;45.712;9.192;2023-05-15T09:43:46;7.38;;;2.72;;
28459;SDS011;32528;45.712;9.192;2023-05-15T09:45:46;7.57;;;3.00;;
28459;SDS011;32528;45.712;9.192;2023-05-15T09:47:47;7.70;;;3.70;;
28459;SDS011;32528;45.712;9.192;2023-05-15T09:49:48;5.72;;;2.80;;
28459;SDS011;32528;45.712;9.192;2023-05-15T09:51:49;5.47;;;2.90;;
28459;SDS011;32528;45.712;9.192;2023-05-15T09:53:50;5.60;;;2.60;;
28459;SDS011;32528;45.712;9.192;2023-05-15T09:55:52;6.60;;;2.30;;
28459;SDS011;32528;45.712;9.192;2023-05-15T09:58:05;5.28;;;2.10;;
28459;SDS011;32528;45.712;9.192;2023-05-15T10:00:16;7.55;;;3.60;;
28459;SDS011;32528;45.712;9.192;2023-05-15T10:02:21;8.35;;;2.88;;
28459;SDS011;32528;45.712;9.192;2023-05-15T10:04:34;5.88;;;2.47;;
28459;SDS011;32528;45.712;9.192;2023-05-15T10:06:36;6.60;;;3.35;;
28459;SDS011;32528;45.712;9.192;2023-05-15T10:08:39;5.28;;;2.67;;
28459;SDS011;32528;45.712;9.192;2023-05-15T10:10:41;7.00;;;2.60;;
28459;SDS011;32528;45.712;9.192;2023-05-15T10:12:42;5.00;;;2.70;;
28459;SDS011;32528;45.712;9.192;2023-05-15T10:14:44;7.05;;;2.65;;
28459;SDS011;32528;45.712;9.192;2023-05-15T10:16:48;8.00;;;2.95;;
28459;SDS011;32528;45.712;9.192;2023-05-15T10:18:50;7.72;;;2.90;;
28459;SDS011;32528;45.712;9.192;2023-05-15T10:20:51;6.75;;;2.67;;
28459;SDS011;32528;45.712;9.192;2023-05-15T10:22:54;8.02;;;2.90;;
28459;SDS011;32528;45.712;9.192;2023-05-15T10:24:59;9.38;;;3.08;;
28459;SDS011;32528;45.712;9.192;2023-05-15T10:27:24;9.50;;;3.28;;
28459;SDS011;32528;45.712;9.192;2023-05-15T10:29:26;6.03;;;2.90;;
28459;SDS011;32528;45.712;9.192;2023-05-15T10:31:28;6.60;;;2.80;;
28459;SDS011;32528;45.712;9.192;2023-05-15T10:33:30;5.15;;;2.35;;
28459;SDS011;32528;45.712;9.192;2023-05-15T10:35:32;7.68;;;2.97;;
28459;SDS011;32528;45.712;9.192;2023-05-15T10:37:33;6.55;;;2.97;;
28459;SDS011;32528;45.712;9.192;2023-05-15T10:39:35;6.93;;;2.83;;
28459;SDS011;32528;45.712;9.192;2023-05-15T10:41:40;5.35;;;3.05;;
28459;SDS011;32528;45.712;9.192;2023-05-15T10:43:42;5.53;;;3.00;;
28459;SDS011;32528;45.712;9.192;2023-05-15T10:45:43;7.88;;;3.10;;
28459;SDS011;32528;45.712;9.192;2023-05-15T10:47:44;6.68;;;3.20;;
28459;SDS011;32528;45.712;9.192;2023-05-15T10:49:46;5.03;;;2.65;;
28459;SDS011;32528;45.712;9.192;2023-05-15T10:51:47;8.98;;;3.53;;
28459;SDS011;32528;45.712;9.192;2023-05-15T10:53:50;7.28;;;3.20;;
28459;SDS011;32528;45.712;9.192;2023-05-15T10:55:51;6.28;;;3.17;;
28459;SDS011;32528;45.712;9.192;2023-05-15T10:57:53;4.90;;;2.80;;
28459;SDS011;32528;45.712;9.192;2023-05-15T10:59:54;8.30;;;3.37;;
28459;SDS011;32528;45.712;9.192;2023-05-15T11:01:55;5.72;;;2.60;;
28459;SDS011;32528;45.712;9.192;2023-05-15T11:04:14;9.43;;;3.17;;
28459;SDS011;32528;45.712;9.192;2023-05-15T11:06:16;7.57;;;4.35;;
28459;SDS011;32528;45.712;9.192;2023-05-15T11:08:27;9.80;;;3.70;;
28459;SDS011;32528;45.712;9.192;2023-05-15T11:12:53;9.15;;;3.28;;
28459;SDS011;32528;45.712;9.192;2023-05-15T11:16:57;6.70;;;2.80;;
28459;SDS011;32528;45.712;9.192;2023-05-15T11:18:59;13.52;;;2.65;;
28459;SDS011;32528;45.712;9.192;2023-05-15T11:23:01;5.87;;;2.20;;
28459;SDS011;32528;45.712;9.192;2023-05-15T11:25:10;9.00;;;3.10;;
28459;SDS011;32528;45.712;9.192;2023-05-15T11:27:12;5.13;;;2.47;;
28459;SDS011;32528;45.712;9.192;2023-05-15T11:29:16;9.10;;;3.13;;
28459;SDS011;32528;45.712;9.192;2023-05-15T11:31:18;7.93;;;3.47;;
28459;SDS011;32528;45.712;9.192;2023-05-15T11:33:29;8.52;;;3.10;;
28459;SDS011;32528;45.712;9.192;2023-05-15T11:35:33;5.90;;;2.97;;
28459;SDS011;32528;45.712;9.192;2023-05-15T11:37:43;6.68;;;3.50;;
28459;SDS011;32528;45.712;9.192;2023-05-15T11:39:46;7.10;;;3.70;;
28459;SDS011;32528;45.712;9.192;2023-05-15T11:41:47;7.43;;;3.80;;
28459;SDS011;32528;45.712;9.192;2023-05-15T11:43:48;13.48;;;3.75;;
28459;SDS011;32528;45.712;9.192;2023-05-15T11:46:11;8.43;;;3.92;;
28459;SDS011;32528;45.712;9.192;2023-05-15T11:48:13;7.45;;;3.17;;
28459;SDS011;32528;45.712;9.192;2023-05-15T11:50:15;5.33;;;2.97;;
28459;SDS011;32528;45.712;9.192;2023-05-15T11:52:17;7.20;;;3.25;;
28459;SDS011;32528;45.712;9.192;2023-05-15T11:54:18;5.13;;;2.72;;
28459;SDS011;32528;45.712;9.192;2023-05-15T11:56:21;8.07;;;2.72;;
28459;SDS011;32528;45.712;9.192;2023-05-15T11:58:25;10.88;;;2.88;;
28459;SDS011;32528;45.712;9.192;2023-05-15T12:00:26;8.02;;;2.92;;
28459;SDS011;32528;45.712;9.192;2023-05-15T12:02:26;12.73;;;3.50;;
28459;SDS011;32528;45.712;9.192;2023-05-15T12:04:27;6.95;;;4.07;;
28459;SDS011;32528;45.712;9.192;2023-05-15T12:06:28;8.20;;;3.30;;
28459;SDS011;32528;45.712;9.192;2023-05-15T12:08:32;6.45;;;3.60;;
28459;SDS011;32528;45.712;9.192;2023-05-15T12:10:38;9.32;;;3.83;;
28459;SDS011;32528;45.712;9.192;2023-05-15T12:12:40;8.23;;;4.18;;
28459;SDS011;32528;45.712;9.192;2023-05-15T12:14:47;7.70;;;4.28;;
28459;SDS011;32528;45.712;9.192;2023-05-15T12:16:50;7.45;;;4.75;;
28459;SDS011;32528;45.712;9.192;2023-05-15T12:18:51;6.50;;;4.00;;
28459;SDS011;32528;45.712;9.192;2023-05-15T12:20:52;9.73;;;4.47;;
28459;SDS011;32528;45.712;9.192;2023-05-15T12:22:53;10.18;;;4.28;;
28459;SDS011;32528;45.712;9.192;2023-05-15T12:24:57;7.88;;;4.38;;
28459;SDS011;32528;45.712;9.192;2023-05-15T12:26:58;7.55;;;4.25;;
28459;SDS011;32528;45.712;9.192;2023-05-15T12:28:59;7.95;;;4.43;;
28459;SDS011;32528;45.712;9.192;2023-05-15T12:31:00;7.67;;;4.47;;
28459;SDS011;32528;45.712;9.192;2023-05-15T12:33:02;9.43;;;4.53;;
28459;SDS011;32528;45.712;9.192;2023-05-15T12:35:07;8.13;;;4.03;;
28459;SDS011;32528;45.712;9.192;2023-05-15T12:37:11;9.97;;;4.60;;
28459;SDS011;32528;45.712;9.192;2023-05-15T12:39:12;9.40;;;3.87;;
28459;SDS011;32528;45.712;9.192;2023-05-15T12:41:13;8.98;;;4.20;;
28459;SDS011;32528;45.712;9.192;2023-05-15T12:43:14;7.97;;;4.10;;
28459;SDS011;32528;45.712;9.192;2023-05-15T12:45:15;7.43;;;3.53;;
28459;SDS011;32528;45.712;9.192;2023-05-15T12:47:21;7.05;;;3.35;;
28459;SDS011;32528;45.712;9.192;2023-05-15T12:49:25;5.80;;;2.90;;
28459;SDS011;32528;45.712;9.192;2023-05-15T12:51:27;7.45;;;3.42;;
28459;SDS011;32528;45.712;9.192;2023-05-15T12:53:30;5.22;;;3.03;;
28459;SDS011;32528;45.712;9.192;2023-05-15T12:55:32;5.43;;;2.83;;